sensor_id;sensor_type;location;lat;lon;timestamp;P1;durP1;ratioP1;P2;durP2;ratioP2
73100;SDS011;61288;53.446;-2.266;2024-01-15T00:01:41;12.27;;;3.20;;
73100;SDS011;61288;53.446;-2.266;2024-01-15T00:04:08;10.75;;;3.33;;
73100;SDS011;61288;53.446;-2.266;2024-01-15T00:06:33;9.38;;;2.85;;
73100;SDS011;61288;53.446;-2.266;2024-01-15T00:08:59;7.63;;;2.65;;
73100;SDS011;61288;53.446;-2.266;2024-01-15T00:11:24;11.25;;;3.17;;
73100;SDS011;61288;53.446;-2.266;2024-01-15T00:13:50;11.13;;;3.72;;
73100;SDS011;61288;53.446;-2.266;2024-01-15T00:16:15;12.43;;;3.50;;
73100;SDS011;61288;53.446;-2.266;2024-01-15T00:18:41;10.80;;;3.90;;
73100;SDS011;61288;53.446;-2.266;2024-01-15T00:21:06;11.60;;;4.13;;
73100;SDS011;61288;53.446;-2.266;2024-01-15T00:23:31;10.75;;;3.50;;
73100;SDS011;61288;53.446;-2.266;2024-01-15T00:25:57;12.15;;;3.67;;
73100;SDS011;61288;53.446;-2.266;2024-01-15T00:28:22;10.30;;;3.70;;
73100;SDS011;61288;53.446;-2.266;2024-01-15T00:36:17;8.02;;;3.15;;
73100;SDS011;61288;53.446;-2.266;2024-01-15T00:38:43;8.93;;;3.20;;
73100;SDS011;61288;53.446;-2.266;2024-01-15T00:41:09;7.03;;;2.22;;
73100;SDS011;61288;53.446;-2.266;2024-01-15T00:43:35;7.88;;;2.65;;
73100;SDS011;61288;53.446;-2.266;2024-01-15T00:46:04;8.70;;;2.55;;
73100;SDS011;61288;53.446;-2.266;2024-01-15T00:48:30;7.78;;;2.72;;
73100;SDS011;61288;53.446;-2.266;2024-01-15T00:50:56;6.95;;;2.47;;
73100;SDS011;61288;53.446;-2.266;2024-01-15T00:53:21;7.32;;;2.50;;
73100;SDS011;61288;53.446;-2.266;2024-01-15T00:55:50;8.07;;;2.63;;
73100;SDS011;61288;53.446;-2.266;2024-01-15T00:58:15;10.07;;;3.17;;
73100;SDS011;61288;53.446;-2.266;2024-01-15T01:00:42;5.93;;;2.00;;
73100;SDS011;61288;53.446;-2.266;2024-01-15T01:03:08;7.38;;;1.95;;
73100;SDS011;61288;53.446;-2.266;2024-01-15T01:05:35;6.97;;;2.00;;
73100;SDS011;61288;53.446;-2.266;2024-01-15T01:08:00;8.25;;;2.28;;
73100;SDS011;61288;53.446;-2.266;2024-01-15T01:10:26;5.22;;;1.85;;
73100;SDS011;61288;53.446;-2.266;2024-01-15T01:12:52;6.78;;;2.20;;
73100;SDS011;61288;53.446;-2.266;2024-01-15T01:15:18;7.30;;;1.92;;
73100;SDS011;61288;53.446;-2.266;2024-01-15T01:17:44;5.57;;;2.00;;
73100;SDS011;61288;53.446;-2.266;2024-01-15T01:20:09;6.15;;;1.80;;
73100;SDS011;61288;53.446;-2.266;2024-01-15T01:22:36;5.50;;;1.80;;
73100;SDS011;61288;53.446;-2.266;2024-01-15T01:25:01;6.05;;;1.90;;
73100;SDS011;61288;53.446;-2.266;2024-01-15T01:27:27;6.03;;;1.83;;
73100;SDS011;61288;53.446;-2.266;2024-01-15T01:29:53;6.50;;;1.77;;
73100;SDS011;61288;53.446;-2.266;2024-01-15T01:32:18;4.78;;;1.40;;
73100;SDS011;61288;53.446;-2.266;2024-01-15T01:34:44;4.63;;;1.25;;
73100;SDS011;61288;53.446;-2.266;2024-01-15T01:37:10;3.67;;;1.10;;
73100;SDS011;61288;53.446;-2.266;2024-01-15T01:39:39;3.58;;;1.30;;
73100;SDS011;61288;53.446;-2.266;2024-01-15T01:42:05;2.60;;;1.10;;
73100;SDS011;61288;53.446;-2.266;2024-01-15T01:44:31;3.53;;;1.10;;
73100;SDS011;61288;53.446;-2.266;2024-01-15T01:46:57;2.58;;;0.90;;
73100;SDS011;61288;53.446;-2.266;2024-01-15T01:49:24;3.05;;;1.20;;
73100;SDS011;61288;53.446;-2.266;2024-01-15T01:51:52;3.03;;;1.10;;
73100;SDS011;61288;53.446;-2.266;2024-01-15T01:54:18;2.28;;;0.95;;
73100;SDS011;61288;53.446;-2.266;2024-01-15T01:56:46;4.95;;;1.38;;
73100;SDS011;61288;53.446;-2.266;2024-01-15T01:59:13;4.75;;;1.30;;
73100;SDS011;61288;53.446;-2.266;2024-01-15T02:01:39;1.73;;;1.00;;
73100;SDS011;61288;53.446;-2.266;2024-01-15T02:04:06;2.15;;;1.08;;
73100;SDS011;61288;53.446;-2.266;2024-01-15T02:06:31;2.92;;;1.00;;
73100;SDS011;61288;53.446;-2.266;2024-01-15T02:08:58;1.33;;;0.90;;
73100;SDS011;61288;53.446;-2.266;2024-01-15T02:11:24;3.47;;;1.40;;
73100;SDS011;61288;53.446;-2.266;2024-01-15T02:13:50;3.83;;;1.02;;
73100;SDS011;61288;53.446;-2.266;2024-01-15T02:16:15;3.70;;;1.10;;
73100;SDS011;61288;53.446;-2.266;2024-01-15T02:18:45;2.60;;;1.10;;
73100;SDS011;61288;53.446;-2.266;2024-01-15T02:21:11;4.03;;;0.90;;
73100;SDS011;61288;53.446;-2.266;2024-01-15T02:23:37;5.45;;;1.05;;
73100;SDS011;61288;53.446;-2.266;2024-01-15T02:26:04;5.25;;;1.45;;
73100;SDS011;61288;53.446;-2.266;2024-01-15T02:28:30;2.50;;;1.00;;
73100;SDS011;61288;53.446;-2.266;2024-01-15T02:30:57;2.08;;;0.85;;
73100;SDS011;61288;53.446;-2.266;2024-01-15T02:33:23;4.53;;;1.10;;
73100;SDS011;61288;53.446;-2.266;2024-01-15T02:35:49;6.32;;;1.33;;
73100;SDS011;61288;53.446;-2.266;2024-01-15T02:38:17;4.35;;;1.30;;
73100;SDS011;61288;53.446;-2.266;2024-01-15T02:40:44;7.45;;;1.52;;
73100;SDS011;61288;53.446;-2.266;2024-01-15T02:43:10;4.22;;;1.40;;
73100;SDS011;61288;53.446;-2.266;2024-01-15T02:45:37;3.65;;;1.33;;
73100;SDS011;61288;53.446;-2.266;2024-01-15T02:48:03;3.17;;;1.20;;
73100;SDS011;61288;53.446;-2.266;2024-01-15T02:50:29;2.22;;;1.23;;
73100;SDS011;61288;53.446;-2.266;2024-01-15T02:52:54;2.92;;;1.45;;
73100;SDS011;61288;53.446;-2.266;2024-01-15T02:55:20;4.63;;;1.70;;
73100;SDS011;61288;53.446;-2.266;2024-01-15T02:57:45;4.30;;;1.52;;
73100;SDS011;61288;53.446;-2.266;2024-01-15T03:00:11;6.97;;;1.80;;
73100;SDS011;61288;53.446;-2.266;2024-01-15T03:02:37;6.43;;;1.92;;
73100;SDS011;61288;53.446;-2.266;2024-01-15T03:05:09;9.27;;;1.80;;
73100;SDS011;61288;53.446;-2.266;2024-01-15T03:07:35;6.05;;;1.75;;
73100;SDS011;61288;53.446;-2.266;2024-01-15T03:10:01;6.65;;;1.85;;
73100;SDS011;61288;53.446;-2.266;2024-01-15T03:12:27;4.50;;;2.03;;
73100;SDS011;61288;53.446;-2.266;2024-01-15T03:14:53;5.57;;;1.98;;
73100;SDS011;61288;53.446;-2.266;2024-01-15T03:17:19;6.78;;;2.10;;
73100;SDS011;61288;53.446;-2.266;2024-01-15T03:19:45;6.80;;;2.00;;
73100;SDS011;61288;53.446;-2.266;2024-01-15T03:22:10;5.47;;;1.83;;
73100;SDS011;61288;53.446;-2.266;2024-01-15T03:24:36;5.28;;;2.03;;
73100;SDS011;61288;53.446;-2.266;2024-01-15T03:27:02;8.30;;;1.83;;
73100;SDS011;61288;53.446;-2.266;2024-01-15T03:29:28;6.03;;;2.05;;
73100;SDS011;61288;53.446;-2.266;2024-01-15T03:31:54;6.53;;;1.70;;
73100;SDS011;61288;53.446;-2.266;2024-01-15T03:34:20;6.20;;;2.25;;
73100;SDS011;61288;53.446;-2.266;2024-01-15T03:36:48;8.57;;;2.47;;
73100;SDS011;61288;53.446;-2.266;2024-01-15T03:39:14;6.00;;;2.00;;
73100;SDS011;61288;53.446;-2.266;2024-01-15T03:41:39;6.40;;;2.40;;
73100;SDS011;61288;53.446;-2.266;2024-01-15T03:44:04;6.93;;;2.30;;
73100;SDS011;61288;53.446;-2.266;2024-01-15T03:46:30;8.38;;;2.75;;
73100;SDS011;61288;53.446;-2.266;2024-01-15T03:48:55;7.80;;;2.42;;
73100;SDS011;61288;53.446;-2.266;2024-01-15T03:51:21;9.88;;;2.33;;
73100;SDS011;61288;53.446;-2.266;2024-01-15T03:53:46;6.80;;;2.60;;
73100;SDS011;61288;53.446;-2.266;2024-01-15T03:56:12;7.38;;;2.70;;
73100;SDS011;61288;53.446;-2.266;2024-01-15T03:58:38;8.27;;;3.30;;
73100;SDS011;61288;53.446;-2.266;2024-01-15T04:01:07;8.25;;;2.70;;
73100;SDS011;61288;53.446;-2.266;2024-01-15T04:03:33;10.80;;;2.80;;
73100;SDS011;61288;53.446;-2.266;2024-01-15T04:05:59;9.10;;;2.60;;
73100;SDS011;61288;53.446;-2.266;2024-01-15T04:08:24;9.20;;;2.75;;
73100;SDS011;61288;53.446;-2.266;2024-01-15T04:10:50;7.93;;;2.60;;
73100;SDS011;61288;53.446;-2.266;2024-01-15T04:13:15;8.05;;;2.88;;
73100;SDS011;61288;53.446;-2.266;2024-01-15T04:15:41;9.45;;;3.13;;
73100;SDS011;61288;53.446;-2.266;2024-01-15T04:18:06;7.75;;;2.88;;
73100;SDS011;61288;53.446;-2.266;2024-01-15T04:20:32;10.00;;;2.92;;
73100;SDS011;61288;53.446;-2.266;2024-01-15T04:22:57;9.00;;;3.08;;
73100;SDS011;61288;53.446;-2.266;2024-01-15T04:25:23;10.63;;;3.03;;
73100;SDS011;61288;53.446;-2.266;2024-01-15T04:27:49;8.65;;;3.53;;
73100;SDS011;61288;53.446;-2.266;2024-01-15T04:30:14;11.30;;;3.15;;
73100;SDS011;61288;53.446;-2.266;2024-01-15T04:32:40;10.32;;;2.85;;
73100;SDS011;61288;53.446;-2.266;2024-01-15T04:35:06;9.98;;;3.15;;
73100;SDS011;61288;53.446;-2.266;2024-01-15T04:37:32;7.68;;;2.90;;
73100;SDS011;61288;53.446;-2.266;2024-01-15T04:39:58;8.35;;;2.65;;
73100;SDS011;61288;53.446;-2.266;2024-01-15T04:42:23;9.57;;;3.35;;
73100;SDS011;61288;53.446;-2.266;2024-01-15T04:44:49;8.75;;;3.00;;
73100;SDS011;61288;53.446;-2.266;2024-01-15T04:47:15;7.65;;;2.50;;
73100;SDS011;61288;53.446;-2.266;2024-01-15T04:49:41;9.32;;;3.00;;
73100;SDS011;61288;53.446;-2.266;2024-01-15T04:52:07;10.88;;;2.60;;
73100;SDS011;61288;53.446;-2.266;2024-01-15T04:54:35;10.98;;;3.33;;
73100;SDS011;61288;53.446;-2.266;2024-01-15T04:57:01;8.80;;;2.75;;
73100;SDS011;61288;53.446;-2.266;2024-01-15T04:59:27;9.68;;;2.70;;
73100;SDS011;61288;53.446;-2.266;2024-01-15T05:01:53;7.43;;;2.50;;
73100;SDS011;61288;53.446;-2.266;2024-01-15T05:04:18;6.90;;;2.35;;
73100;SDS011;61288;53.446;-2.266;2024-01-15T05:06:44;10.05;;;2.60;;
73100;SDS011;61288;53.446;-2.266;2024-01-15T05:09:09;7.70;;;2.00;;
73100;SDS011;61288;53.446;-2.266;2024-01-15T05:11:35;7.07;;;1.90;;
73100;SDS011;61288;53.446;-2.266;2024-01-15T05:14:00;7.72;;;2.30;;
73100;SDS011;61288;53.446;-2.266;2024-01-15T05:16:26;5.03;;;1.88;;
73100;SDS011;61288;53.446;-2.266;2024-01-15T05:18:51;6.63;;;2.25;;
73100;SDS011;61288;53.446;-2.266;2024-01-15T05:21:16;5.20;;;1.85;;
73100;SDS011;61288;53.446;-2.266;2024-01-15T05:23:42;3.08;;;1.60;;
73100;SDS011;61288;53.446;-2.266;2024-01-15T05:26:08;4.80;;;1.70;;
73100;SDS011;61288;53.446;-2.266;2024-01-15T05:28:34;6.65;;;2.00;;
73100;SDS011;61288;53.446;-2.266;2024-01-15T05:31:00;7.57;;;1.90;;
73100;SDS011;61288;53.446;-2.266;2024-01-15T05:33:26;5.63;;;1.88;;
73100;SDS011;61288;53.446;-2.266;2024-01-15T05:35:51;7.32;;;2.00;;
73100;SDS011;61288;53.446;-2.266;2024-01-15T05:38:18;5.78;;;1.63;;
73100;SDS011;61288;53.446;-2.266;2024-01-15T05:40:43;6.18;;;1.83;;
73100;SDS011;61288;53.446;-2.266;2024-01-15T05:43:09;10.40;;;2.20;;
73100;SDS011;61288;53.446;-2.266;2024-01-15T05:45:34;5.40;;;1.92;;
73100;SDS011;61288;53.446;-2.266;2024-01-15T05:48:04;5.45;;;1.75;;
73100;SDS011;61288;53.446;-2.266;2024-01-15T05:50:30;5.45;;;1.90;;
73100;SDS011;61288;53.446;-2.266;2024-01-15T05:52:57;7.30;;;1.88;;
73100;SDS011;61288;53.446;-2.266;2024-01-15T05:55:23;7.68;;;1.80;;
73100;SDS011;61288;53.446;-2.266;2024-01-15T05:57:48;4.93;;;1.85;;
73100;SDS011;61288;53.446;-2.266;2024-01-15T06:00:14;5.43;;;1.90;;
73100;SDS011;61288;53.446;-2.266;2024-01-15T06:02:40;3.78;;;1.50;;
73100;SDS011;61288;53.446;-2.266;2024-01-15T06:05:06;5.85;;;1.60;;
73100;SDS011;61288;53.446;-2.266;2024-01-15T06:07:35;5.53;;;2.03;;
73100;SDS011;61288;53.446;-2.266;2024-01-15T06:10:01;5.15;;;1.63;;
73100;SDS011;61288;53.446;-2.266;2024-01-15T06:12:27;5.50;;;1.73;;
73100;SDS011;61288;53.446;-2.266;2024-01-15T06:14:53;5.45;;;1.90;;
73100;SDS011;61288;53.446;-2.266;2024-01-15T06:17:18;4.22;;;1.48;;
73100;SDS011;61288;53.446;-2.266;2024-01-15T06:19:44;5.30;;;1.77;;
73100;SDS011;61288;53.446;-2.266;2024-01-15T06:22:10;6.05;;;1.80;;
73100;SDS011;61288;53.446;-2.266;2024-01-15T06:24:36;6.00;;;1.77;;
73100;SDS011;61288;53.446;-2.266;2024-01-15T06:27:01;4.25;;;1.63;;
73100;SDS011;61288;53.446;-2.266;2024-01-15T06:29:27;6.38;;;1.65;;
73100;SDS011;61288;53.446;-2.266;2024-01-15T06:31:53;4.85;;;1.50;;
73100;SDS011;61288;53.446;-2.266;2024-01-15T06:34:19;7.18;;;1.60;;
73100;SDS011;61288;53.446;-2.266;2024-01-15T06:36:44;6.75;;;1.88;;
73100;SDS011;61288;53.446;-2.266;2024-01-15T06:39:10;6.03;;;1.77;;
73100;SDS011;61288;53.446;-2.266;2024-01-15T06:41:36;5.50;;;1.95;;
73100;SDS011;61288;53.446;-2.266;2024-01-15T06:44:08;7.60;;;1.75;;
73100;SDS011;61288;53.446;-2.266;2024-01-15T06:46:36;6.53;;;2.28;;
73100;SDS011;61288;53.446;-2.266;2024-01-15T06:49:01;5.35;;;1.75;;
73100;SDS011;61288;53.446;-2.266;2024-01-15T06:51:27;5.95;;;1.70;;
73100;SDS011;61288;53.446;-2.266;2024-01-15T06:53:54;5.97;;;1.80;;
73100;SDS011;61288;53.446;-2.266;2024-01-15T06:56:19;5.65;;;2.08;;
73100;SDS011;61288;53.446;-2.266;2024-01-15T06:58:45;9.13;;;1.80;;
73100;SDS011;61288;53.446;-2.266;2024-01-15T07:01:10;5.15;;;2.08;;
73100;SDS011;61288;53.446;-2.266;2024-01-15T07:03:36;8.13;;;2.20;;
73100;SDS011;61288;53.446;-2.266;2024-01-15T07:06:03;9.07;;;2.30;;
73100;SDS011;61288;53.446;-2.266;2024-01-15T07:08:29;7.20;;;2.05;;
73100;SDS011;61288;53.446;-2.266;2024-01-15T07:10:55;9.50;;;2.00;;
73100;SDS011;61288;53.446;-2.266;2024-01-15T07:13:20;8.73;;;2.35;;
73100;SDS011;61288;53.446;-2.266;2024-01-15T07:15:46;8.07;;;2.13;;
73100;SDS011;61288;53.446;-2.266;2024-01-15T07:18:11;8.27;;;2.20;;
73100;SDS011;61288;53.446;-2.266;2024-01-15T07:20:37;6.00;;;2.40;;
73100;SDS011;61288;53.446;-2.266;2024-01-15T07:23:03;7.30;;;2.35;;
73100;SDS011;61288;53.446;-2.266;2024-01-15T07:25:29;6.88;;;2.05;;
73100;SDS011;61288;53.446;-2.266;2024-01-15T07:27:54;7.57;;;1.90;;
73100;SDS011;61288;53.446;-2.266;2024-01-15T07:30:20;5.00;;;1.95;;
73100;SDS011;61288;53.446;-2.266;2024-01-15T07:32:47;6.63;;;2.25;;
73100;SDS011;61288;53.446;-2.266;2024-01-15T07:35:14;7.78;;;2.15;;
73100;SDS011;61288;53.446;-2.266;2024-01-15T07:37:40;8.05;;;2.30;;
73100;SDS011;61288;53.446;-2.266;2024-01-15T07:40:06;4.93;;;1.80;;
73100;SDS011;61288;53.446;-2.266;2024-01-15T07:42:33;7.80;;;2.08;;
73100;SDS011;61288;53.446;-2.266;2024-01-15T07:44:59;5.50;;;1.40;;
73100;SDS011;61288;53.446;-2.266;2024-01-15T07:47:25;5.00;;;1.48;;
73100;SDS011;61288;53.446;-2.266;2024-01-15T07:49:52;3.20;;;1.38;;
73100;SDS011;61288;53.446;-2.266;2024-01-15T07:52:18;5.38;;;1.60;;
73100;SDS011;61288;53.446;-2.266;2024-01-15T07:54:43;4.32;;;1.35;;
73100;SDS011;61288;53.446;-2.266;2024-01-15T07:57:12;4.35;;;1.40;;
73100;SDS011;61288;53.446;-2.266;2024-01-15T07:59:38;3.03;;;1.13;;
73100;SDS011;61288;53.446;-2.266;2024-01-15T08:02:05;3.28;;;1.00;;
73100;SDS011;61288;53.446;-2.266;2024-01-15T08:04:30;3.38;;;1.02;;
73100;SDS011;61288;53.446;-2.266;2024-01-15T08:06:57;3.00;;;1.17;;
73100;SDS011;61288;53.446;-2.266;2024-01-15T08:09:23;4.40;;;1.10;;
73100;SDS011;61288;53.446;-2.266;2024-01-15T08:11:49;5.45;;;1.30;;
73100;SDS011;61288;53.446;-2.266;2024-01-15T08:14:14;2.60;;;1.17;;
73100;SDS011;61288;53.446;-2.266;2024-01-15T08:16:40;2.17;;;1.00;;
73100;SDS011;61288;53.446;-2.266;2024-01-15T08:19:06;6.30;;;1.30;;
73100;SDS011;61288;53.446;-2.266;2024-01-15T08:21:32;5.30;;;1.10;;
73100;SDS011;61288;53.446;-2.266;2024-01-15T08:23:58;2.33;;;0.95;;
73100;SDS011;61288;53.446;-2.266;2024-01-15T08:26:25;4.70;;;1.67;;
73100;SDS011;61288;53.446;-2.266;2024-01-15T08:28:54;3.47;;;1.42;;
73100;SDS011;61288;53.446;-2.266;2024-01-15T08:31:19;10.05;;;2.08;;
73100;SDS011;61288;53.446;-2.266;2024-01-15T08:33:45;5.82;;;2.05;;
73100;SDS011;61288;53.446;-2.266;2024-01-15T08:36:11;8.23;;;2.00;;
73100;SDS011;61288;53.446;-2.266;2024-01-15T08:38:36;6.15;;;2.17;;
73100;SDS011;61288;53.446;-2.266;2024-01-15T08:41:02;4.50;;;1.77;;
73100;SDS011;61288;53.446;-2.266;2024-01-15T08:43:28;10.00;;;2.03;;
73100;SDS011;61288;53.446;-2.266;2024-01-15T08:45:53;5.13;;;1.60;;
73100;SDS011;61288;53.446;-2.266;2024-01-15T08:48:19;8.63;;;2.00;;
73100;SDS011;61288;53.446;-2.266;2024-01-15T08:50:44;6.20;;;1.70;;
73100;SDS011;61288;53.446;-2.266;2024-01-15T08:53:14;4.95;;;1.40;;
73100;SDS011;61288;53.446;-2.266;2024-01-15T08:55:40;8.77;;;1.55;;
73100;SDS011;61288;53.446;-2.266;2024-01-15T08:58:07;5.43;;;1.40;;
73100;SDS011;61288;53.446;-2.266;2024-01-15T09:00:34;1.83;;;1.10;;
73100;SDS011;61288;53.446;-2.266;2024-01-15T09:02:59;6.57;;;1.20;;
73100;SDS011;61288;53.446;-2.266;2024-01-15T09:05:26;5.35;;;1.38;;
73100;SDS011;61288;53.446;-2.266;2024-01-15T09:07:51;8.40;;;1.65;;
73100;SDS011;61288;53.446;-2.266;2024-01-15T09:10:17;3.67;;;1.20;;
73100;SDS011;61288;53.446;-2.266;2024-01-15T09:12:43;8.20;;;1.52;;
73100;SDS011;61288;53.446;-2.266;2024-01-15T09:15:09;8.40;;;1.52;;
73100;SDS011;61288;53.446;-2.266;2024-01-15T09:17:34;3.60;;;1.67;;
73100;SDS011;61288;53.446;-2.266;2024-01-15T09:20:00;8.32;;;1.73;;
73100;SDS011;61288;53.446;-2.266;2024-01-15T09:22:26;6.25;;;1.60;;
73100;SDS011;61288;53.446;-2.266;2024-01-15T09:24:52;6.22;;;1.90;;
73100;SDS011;61288;53.446;-2.266;2024-01-15T09:27:17;6.03;;;1.48;;
73100;SDS011;61288;53.446;-2.266;2024-01-15T09:29:43;6.13;;;1.60;;
73100;SDS011;61288;53.446;-2.266;2024-01-15T09:32:10;6.95;;;1.67;;
73100;SDS011;61288;53.446;-2.266;2024-01-15T09:34:37;3.92;;;1.50;;
73100;SDS011;61288;53.446;-2.266;2024-01-15T09:37:02;2.40;;;1.05;;
73100;SDS011;61288;53.446;-2.266;2024-01-15T09:39:29;3.08;;;1.42;;
73100;SDS011;61288;53.446;-2.266;2024-01-15T09:41:56;3.47;;;1.35;;
73100;SDS011;61288;53.446;-2.266;2024-01-15T09:44:23;4.32;;;1.50;;
73100;SDS011;61288;53.446;-2.266;2024-01-15T09:46:49;4.57;;;1.70;;
73100;SDS011;61288;53.446;-2.266;2024-01-15T09:49:17;6.55;;;1.65;;
73100;SDS011;61288;53.446;-2.266;2024-01-15T09:51:43;7.32;;;1.88;;
73100;SDS011;61288;53.446;-2.266;2024-01-15T09:54:09;6.18;;;1.58;;
73100;SDS011;61288;53.446;-2.266;2024-01-15T09:56:40;5.28;;;1.77;;
73100;SDS011;61288;53.446;-2.266;2024-01-15T09:59:05;12.00;;;1.88;;
73100;SDS011;61288;53.446;-2.266;2024-01-15T10:01:32;6.68;;;2.05;;
73100;SDS011;61288;53.446;-2.266;2024-01-15T10:04:01;6.25;;;1.63;;
73100;SDS011;61288;53.446;-2.266;2024-01-15T10:06:27;8.50;;;1.98;;
73100;SDS011;61288;53.446;-2.266;2024-01-15T10:08:53;5.28;;;1.50;;
73100;SDS011;61288;53.446;-2.266;2024-01-15T10:11:21;3.22;;;1.15;;
73100;SDS011;61288;53.446;-2.266;2024-01-15T10:13:46;3.60;;;1.30;;
73100;SDS011;61288;53.446;-2.266;2024-01-15T10:16:16;4.75;;;1.40;;
73100;SDS011;61288;53.446;-2.266;2024-01-15T10:18:41;5.63;;;1.10;;
73100;SDS011;61288;53.446;-2.266;2024-01-15T10:21:07;6.43;;;1.38;;
73100;SDS011;61288;53.446;-2.266;2024-01-15T10:23:33;2.40;;;1.10;;
73100;SDS011;61288;53.446;-2.266;2024-01-15T10:26:00;4.88;;;1.08;;
73100;SDS011;61288;53.446;-2.266;2024-01-15T10:28:26;3.97;;;1.33;;
73100;SDS011;61288;53.446;-2.266;2024-01-15T10:30:55;4.22;;;1.25;;
73100;SDS011;61288;53.446;-2.266;2024-01-15T10:33:22;3.67;;;1.17;;
73100;SDS011;61288;53.446;-2.266;2024-01-15T10:36:00;3.50;;;1.02;;
73100;SDS011;61288;53.446;-2.266;2024-01-15T10:38:26;4.10;;;1.35;;
73100;SDS011;61288;53.446;-2.266;2024-01-15T10:40:55;6.05;;;1.20;;
73100;SDS011;61288;53.446;-2.266;2024-01-15T10:43:21;5.82;;;1.20;;
73100;SDS011;61288;53.446;-2.266;2024-01-15T10:45:49;2.85;;;1.13;;
73100;SDS011;61288;53.446;-2.266;2024-01-15T10:48:18;2.33;;;0.98;;
73100;SDS011;61288;53.446;-2.266;2024-01-15T10:50:47;9.93;;;1.50;;
73100;SDS011;61288;53.446;-2.266;2024-01-15T10:53:15;3.67;;;1.10;;
73100;SDS011;61288;53.446;-2.266;2024-01-15T10:55:42;2.35;;;0.95;;
73100;SDS011;61288;53.446;-2.266;2024-01-15T10:58:08;3.60;;;1.30;;
73100;SDS011;61288;53.446;-2.266;2024-01-15T11:00:35;4.75;;;1.20;;
73100;SDS011;61288;53.446;-2.266;2024-01-15T11:03:03;2.35;;;0.80;;
73100;SDS011;61288;53.446;-2.266;2024-01-15T11:05:36;2.08;;;0.70;;
73100;SDS011;61288;53.446;-2.266;2024-01-15T11:08:05;5.05;;;1.20;;
73100;SDS011;61288;53.446;-2.266;2024-01-15T11:10:42;4.68;;;0.88;;
73100;SDS011;61288;53.446;-2.266;2024-01-15T11:23:46;1.85;;;0.75;;
73100;SDS011;61288;53.446;-2.266;2024-01-15T11:29:09;2.38;;;0.65;;
73100;SDS011;61288;53.446;-2.266;2024-01-15T11:43:01;2.75;;;1.00;;
73100;SDS011;61288;53.446;-2.266;2024-01-15T11:45:27;2.50;;;0.90;;
73100;SDS011;61288;53.446;-2.266;2024-01-15T11:50:40;4.03;;;1.00;;
73100;SDS011;61288;53.446;-2.266;2024-01-15T11:53:53;6.05;;;1.10;;
73100;SDS011;61288;53.446;-2.266;2024-01-15T11:55:58;3.72;;;1.00;;
73100;SDS011;61288;53.446;-2.266;2024-01-15T11:58:25;2.20;;;0.80;;
73100;SDS011;61288;53.446;-2.266;2024-01-15T12:00:51;5.45;;;1.10;;
73100;SDS011;61288;53.446;-2.266;2024-01-15T12:03:23;5.13;;;1.10;;
73100;SDS011;61288;53.446;-2.266;2024-01-15T12:05:49;5.57;;;1.00;;
73100;SDS011;61288;53.446;-2.266;2024-01-15T12:08:20;3.42;;;1.02;;
73100;SDS011;61288;53.446;-2.266;2024-01-15T12:10:46;3.05;;;0.85;;
73100;SDS011;61288;53.446;-2.266;2024-01-15T12:13:12;2.10;;;0.90;;
73100;SDS011;61288;53.446;-2.266;2024-01-15T12:15:39;5.40;;;1.08;;
73100;SDS011;61288;53.446;-2.266;2024-01-15T12:18:10;4.70;;;0.98;;
73100;SDS011;61288;53.446;-2.266;2024-01-15T12:20:36;1.17;;;0.70;;
73100;SDS011;61288;53.446;-2.266;2024-01-15T12:23:02;2.28;;;0.88;;
73100;SDS011;61288;53.446;-2.266;2024-01-15T12:25:28;3.08;;;0.90;;
73100;SDS011;61288;53.446;-2.266;2024-01-15T12:27:55;4.05;;;0.93;;
73100;SDS011;61288;53.446;-2.266;2024-01-15T12:30:21;1.92;;;0.80;;
73100;SDS011;61288;53.446;-2.266;2024-01-15T12:32:47;1.40;;;0.85;;
73100;SDS011;61288;53.446;-2.266;2024-01-15T12:35:13;3.35;;;1.00;;
73100;SDS011;61288;53.446;-2.266;2024-01-15T12:37:40;4.10;;;1.35;;
73100;SDS011;61288;53.446;-2.266;2024-01-15T12:40:10;2.75;;;1.15;;
73100;SDS011;61288;53.446;-2.266;2024-01-15T12:42:36;2.55;;;0.93;;
73100;SDS011;61288;53.446;-2.266;2024-01-15T12:45:02;6.10;;;1.27;;
73100;SDS011;61288;53.446;-2.266;2024-01-15T12:47:29;8.02;;;1.10;;
73100;SDS011;61288;53.446;-2.266;2024-01-15T12:49:55;4.05;;;0.93;;
73100;SDS011;61288;53.446;-2.266;2024-01-15T12:52:22;6.13;;;1.10;;
73100;SDS011;61288;53.446;-2.266;2024-01-15T12:54:48;5.75;;;1.25;;
73100;SDS011;61288;53.446;-2.266;2024-01-15T12:57:16;4.65;;;1.10;;
73100;SDS011;61288;53.446;-2.266;2024-01-15T12:59:42;9.80;;;1.55;;
73100;SDS011;61288;53.446;-2.266;2024-01-15T13:02:09;2.47;;;0.90;;
73100;SDS011;61288;53.446;-2.266;2024-01-15T13:04:36;4.47;;;1.00;;
73100;SDS011;61288;53.446;-2.266;2024-01-15T13:07:02;4.28;;;1.10;;
73100;SDS011;61288;53.446;-2.266;2024-01-15T13:09:27;4.47;;;1.45;;
73100;SDS011;61288;53.446;-2.266;2024-01-15T13:11:54;2.88;;;1.00;;
73100;SDS011;61288;53.446;-2.266;2024-01-15T13:14:23;2.80;;;0.93;;
73100;SDS011;61288;53.446;-2.266;2024-01-15T13:16:48;3.58;;;0.75;;
73100;SDS011;61288;53.446;-2.266;2024-01-15T13:19:14;5.07;;;1.20;;
73100;SDS011;61288;53.446;-2.266;2024-01-15T13:21:40;4.10;;;1.17;;
73100;SDS011;61288;53.446;-2.266;2024-01-15T13:24:06;4.18;;;1.30;;
73100;SDS011;61288;53.446;-2.266;2024-01-15T13:26:32;2.83;;;0.80;;
73100;SDS011;61288;53.446;-2.266;2024-01-15T13:29:06;5.47;;;1.05;;
73100;SDS011;61288;53.446;-2.266;2024-01-15T13:31:32;3.92;;;1.05;;
73100;SDS011;61288;53.446;-2.266;2024-01-15T13:33:58;6.45;;;1.00;;
73100;SDS011;61288;53.446;-2.266;2024-01-15T13:36:26;3.17;;;1.00;;
73100;SDS011;61288;53.446;-2.266;2024-01-15T13:38:52;3.80;;;1.05;;
73100;SDS011;61288;53.446;-2.266;2024-01-15T13:41:19;3.60;;;0.90;;
73100;SDS011;61288;53.446;-2.266;2024-01-15T13:43:48;4.35;;;1.20;;
73100;SDS011;61288;53.446;-2.266;2024-01-15T13:46:15;6.38;;;1.10;;
73100;SDS011;61288;53.446;-2.266;2024-01-15T13:48:42;4.18;;;0.80;;
73100;SDS011;61288;53.446;-2.266;2024-01-15T13:51:09;4.95;;;0.90;;
73100;SDS011;61288;53.446;-2.266;2024-01-15T13:53:37;3.97;;;0.93;;
73100;SDS011;61288;53.446;-2.266;2024-01-15T13:56:03;6.05;;;1.27;;
73100;SDS011;61288;53.446;-2.266;2024-01-15T13:58:32;4.65;;;1.15;;
73100;SDS011;61288;53.446;-2.266;2024-01-15T14:00:58;7.50;;;1.52;;
73100;SDS011;61288;53.446;-2.266;2024-01-15T14:03:24;6.88;;;1.50;;
73100;SDS011;61288;53.446;-2.266;2024-01-15T14:05:51;6.28;;;1.13;;
73100;SDS011;61288;53.446;-2.266;2024-01-15T14:08:17;6.22;;;1.50;;
73100;SDS011;61288;53.446;-2.266;2024-01-15T14:10:43;3.15;;;1.02;;
73100;SDS011;61288;53.446;-2.266;2024-01-15T14:13:10;3.70;;;1.00;;
73100;SDS011;61288;53.446;-2.266;2024-01-15T14:15:39;6.40;;;1.70;;
73100;SDS011;61288;53.446;-2.266;2024-01-15T14:18:05;6.57;;;1.20;;
73100;SDS011;61288;53.446;-2.266;2024-01-15T14:20:31;6.57;;;1.38;;
73100;SDS011;61288;53.446;-2.266;2024-01-15T14:22:56;6.72;;;1.10;;
73100;SDS011;61288;53.446;-2.266;2024-01-15T14:25:22;5.03;;;1.10;;
73100;SDS011;61288;53.446;-2.266;2024-01-15T14:27:49;4.50;;;1.00;;
73100;SDS011;61288;53.446;-2.266;2024-01-15T14:30:15;4.72;;;1.13;;
73100;SDS011;61288;53.446;-2.266;2024-01-15T14:32:41;3.60;;;1.30;;
73100;SDS011;61288;53.446;-2.266;2024-01-15T14:35:07;4.10;;;1.23;;
73100;SDS011;61288;53.446;-2.266;2024-01-15T14:37:35;5.43;;;1.38;;
73100;SDS011;61288;53.446;-2.266;2024-01-15T14:40:02;10.07;;;1.40;;
73100;SDS011;61288;53.446;-2.266;2024-01-15T14:42:29;7.65;;;1.17;;
73100;SDS011;61288;53.446;-2.266;2024-01-15T14:44:54;5.65;;;1.30;;
73100;SDS011;61288;53.446;-2.266;2024-01-15T14:47:20;5.45;;;1.10;;
73100;SDS011;61288;53.446;-2.266;2024-01-15T14:49:48;2.20;;;1.00;;
73100;SDS011;61288;53.446;-2.266;2024-01-15T14:52:14;3.28;;;0.82;;
73100;SDS011;61288;53.446;-2.266;2024-01-15T14:54:40;4.65;;;1.10;;
73100;SDS011;61288;53.446;-2.266;2024-01-15T14:57:06;6.35;;;1.50;;
73100;SDS011;61288;53.446;-2.266;2024-01-15T14:59:32;3.67;;;1.05;;
73100;SDS011;61288;53.446;-2.266;2024-01-15T15:01:57;4.75;;;0.77;;